createdAt,value
2023-04-04T00:00:47.890Z,2.70
2023-04-04T00:01:47.896Z,2.40
2023-04-04T00:02:47.944Z,2.30
2023-04-04T00:03:47.958Z,2.40
2023-04-04T00:04:47.848Z,2.30
2023-04-04T00:05:47.858Z,2.60
2023-04-04T00:06:47.888Z,2.50
2023-04-04T00:07:47.812Z,2.60
2023-04-04T00:08:47.824Z,2.60
2023-04-04T00:09:47.767Z,2.40
2023-04-04T00:10:47.758Z,2.30
2023-04-04T00:11:47.790Z,2.60
2023-04-04T00:12:47.736Z,2.70
2023-04-04T00:13:47.716Z,3.00
2023-04-04T00:14:47.725Z,2.60
2023-04-04T00:15:47.709Z,2.70
2023-04-04T00:16:47.693Z,2.50
2023-04-04T00:17:47.694Z,2.50
2023-04-04T00:18:47.647Z,2.80
2023-04-04T00:19:47.636Z,2.80
2023-04-04T00:20:47.654Z,2.90
2023-04-04T00:21:47.618Z,2.60
2023-04-04T00:22:47.586Z,3.10
2023-04-04T00:23:47.614Z,3.00
2023-04-04T00:24:47.602Z,2.90
2023-04-04T00:25:47.583Z,2.90
2023-04-04T00:26:47.589Z,2.70
2023-04-04T00:27:47.510Z,2.80
2023-04-04T00:28:47.500Z,2.90
2023-04-04T00:29:47.522Z,2.80
2023-04-04T00:30:47.499Z,2.60
2023-04-04T00:31:47.544Z,2.50
2023-04-04T00:32:47.554Z,2.60
2023-04-04T00:33:47.478Z,3.10
2023-04-04T00:34:47.445Z,2.70
2023-04-04T00:35:47.459Z,2.70
2023-04-04T00:36:47.439Z,2.80
2023-04-04T00:37:47.410Z,2.90
2023-04-04T00:38:47.386Z,3.00
2023-04-04T00:39:47.424Z,2.80
2023-04-04T00:40:47.414Z,3.10
2023-04-04T00:41:47.358Z,3.10
2023-04-04T00:42:47.392Z,2.90
2023-04-04T00:43:47.301Z,2.60
2023-04-04T00:44:47.333Z,2.70
2023-04-04T00:45:47.451Z,2.70
2023-04-04T00:46:47.287Z,2.40
2023-04-04T00:47:47.340Z,3.10
2023-04-04T00:48:47.274Z,2.30
2023-04-04T00:49:47.240Z,2.80
2023-04-04T00:50:47.233Z,2.50
2023-04-04T00:51:47.249Z,2.50
2023-04-04T00:52:47.235Z,2.70
2023-04-04T00:53:47.175Z,2.70
2023-04-04T00:54:47.216Z,2.90
2023-04-04T00:55:47.159Z,2.70
2023-04-04T00:56:47.182Z,2.40
2023-04-04T00:57:47.183Z,2.90
2023-04-04T00:58:47.137Z,2.60
2023-04-04T00:59:47.090Z,2.50
2023-04-04T01:00:47.089Z,2.70
2023-04-04T01:01:47.128Z,2.90
2023-04-04T01:02:47.152Z,2.50
2023-04-04T01:03:47.037Z,2.50
2023-04-04T01:04:47.042Z,2.30
2023-04-04T01:05:46.997Z,2.70
2023-04-04T01:06:47.022Z,2.50
2023-04-04T01:07:47.022Z,2.60
2023-04-04T01:08:46.965Z,2.50
2023-04-04T01:09:46.950Z,2.60
2023-04-04T01:10:47.062Z,2.30
2023-04-04T01:11:46.935Z,2.70
2023-04-04T01:12:47.045Z,2.80
2023-04-04T01:13:46.908Z,2.80
2023-04-04T01:14:46.885Z,2.50
2023-04-04T01:15:46.875Z,3.00
2023-04-04T01:16:46.947Z,2.70
2023-04-04T01:17:46.897Z,2.90
2023-04-04T01:18:46.824Z,2.90
2023-04-04T01:19:46.876Z,2.80
2023-04-04T01:20:46.797Z,2.90
2023-04-04T01:21:46.800Z,3.30
2023-04-04T01:22:46.856Z,2.70
2023-04-04T01:23:46.784Z,2.70
2023-04-04T01:24:46.768Z,3.00
2023-04-04T01:25:46.758Z,2.70
2023-04-04T01:26:46.717Z,3.00
2023-04-04T01:27:46.750Z,3.20
2023-04-04T01:28:46.745Z,3.30
2023-04-04T01:29:46.680Z,2.80
2023-04-04T01:30:46.659Z,3.10
2023-04-04T01:31:46.653Z,3.00
2023-04-04T01:32:46.696Z,2.70
2023-04-04T01:33:46.627Z,2.80
2023-04-04T01:34:46.634Z,2.90
2023-04-04T01:35:46.654Z,2.80
2023-04-04T01:36:46.570Z,2.80
2023-04-04T01:37:46.619Z,2.60
2023-04-04T01:38:46.556Z,2.80
2023-04-04T01:39:46.538Z,3.20
2023-04-04T01:40:46.615Z,2.90
2023-04-04T01:41:46.521Z,3.00
2023-04-04T01:42:46.528Z,2.90
2023-04-04T01:43:46.528Z,2.70
2023-04-04T01:44:46.480Z,2.80
2023-04-04T01:45:46.498Z,3.00
2023-04-04T01:46:46.473Z,2.80
2023-04-04T01:47:46.522Z,2.80
2023-04-04T01:48:46.420Z,2.80
2023-04-04T01:49:46.442Z,2.80
2023-04-04T01:50:46.451Z,2.90
2023-04-04T01:51:46.473Z,2.80
2023-04-04T01:52:46.416Z,3.20
2023-04-04T01:53:46.375Z,2.80
2023-04-04T01:54:46.354Z,3.00
2023-04-04T01:55:46.378Z,2.90
2023-04-04T01:56:46.326Z,3.00
2023-04-04T01:57:46.354Z,3.10
2023-04-04T01:58:46.345Z,3.00
2023-04-04T01:59:46.279Z,2.60
2023-04-04T02:00:46.322Z,3.20
2023-04-04T02:01:46.320Z,3.20
2023-04-04T02:02:46.255Z,3.30
2023-04-04T02:03:46.312Z,2.70
2023-04-04T02:04:46.255Z,2.80
2023-04-04T02:05:46.199Z,2.90
2023-04-04T02:06:46.183Z,2.90
2023-04-04T02:07:46.199Z,2.90
2023-04-04T02:08:46.192Z,2.80
2023-04-04T02:09:46.149Z,3.10
2023-04-04T02:10:46.185Z,2.70
2023-04-04T02:11:46.116Z,3.10
2023-04-04T02:12:46.107Z,2.90
2023-04-04T02:13:46.138Z,3.10
2023-04-04T02:14:46.090Z,3.10
2023-04-04T02:15:46.096Z,3.00
2023-04-04T02:16:46.101Z,3.10
2023-04-04T02:17:46.046Z,3.20
2023-04-04T02:18:46.036Z,3.10
2023-04-04T02:19:46.033Z,3.30
2023-04-04T02:20:45.998Z,3.20
2023-04-04T02:21:45.989Z,2.90
2023-04-04T02:22:46.022Z,3.60
2023-04-04T02:23:45.956Z,3.40
2023-04-04T02:24:45.924Z,3.40
2023-04-04T02:25:45.960Z,3.50
2023-04-04T02:26:45.915Z,2.80
2023-04-04T02:27:45.912Z,3.40
2023-04-04T02:28:45.911Z,3.40
2023-04-04T02:29:45.891Z,3.40
2023-04-04T02:30:45.858Z,3.10
2023-04-04T02:31:45.884Z,3.40
2023-04-04T02:32:45.884Z,3.20
2023-04-04T02:33:45.828Z,3.30
2023-04-04T02:34:45.804Z,3.30
2023-04-04T02:35:45.842Z,3.20
2023-04-04T02:36:45.769Z,3.50
2023-04-04T02:37:45.811Z,3.20
2023-04-04T02:38:45.807Z,3.20
2023-04-04T02:39:45.737Z,3.20
2023-04-04T02:40:45.713Z,3.40
2023-04-04T02:41:45.765Z,3.10
2023-04-04T02:42:45.716Z,3.30
2023-04-04T02:43:45.722Z,3.30
2023-04-04T02:44:45.705Z,3.20
2023-04-04T02:45:45.656Z,3.10
2023-04-04T02:46:45.683Z,3.20
2023-04-04T02:47:45.670Z,3.40
2023-04-04T02:48:45.628Z,3.10
2023-04-04T02:49:45.611Z,3.20
2023-04-04T02:50:45.609Z,3.40
2023-04-04T02:51:45.590Z,3.10
2023-04-04T02:52:45.562Z,3.10
2023-04-04T02:53:45.623Z,3.40
2023-04-04T02:54:45.528Z,3.40
2023-04-04T02:55:45.527Z,3.00
2023-04-04T02:56:45.516Z,3.40
2023-04-04T02:57:45.528Z,3.20
2023-04-04T02:58:45.537Z,2.90
2023-04-04T02:59:45.480Z,3.20
2023-04-04T03:00:45.532Z,3.30
2023-04-04T03:01:45.501Z,3.10
2023-04-04T03:02:45.583Z,3.00
2023-04-04T03:03:45.534Z,3.20
2023-04-04T03:04:45.391Z,3.20
2023-04-04T03:05:45.384Z,3.10
2023-04-04T03:06:45.365Z,3.40
2023-04-04T03:07:45.371Z,3.60
2023-04-04T03:08:45.365Z,3.50
2023-04-04T03:09:45.370Z,3.50
2023-04-04T03:10:45.312Z,3.40
2023-04-04T03:11:45.306Z,3.50
2023-04-04T03:12:45.297Z,3.20
2023-04-04T03:13:45.292Z,3.30
2023-04-04T03:14:45.273Z,3.50
2023-04-04T03:15:47.473Z,3.30
2023-04-04T03:16:45.325Z,3.60
2023-04-04T03:17:45.308Z,3.30
2023-04-04T03:18:45.217Z,3.00
2023-04-04T03:19:45.225Z,3.20
2023-04-04T03:20:45.191Z,2.80
2023-04-04T03:21:45.166Z,3.40
2023-04-04T03:22:45.181Z,3.40
2023-04-04T03:23:45.169Z,3.40
2023-04-04T03:24:45.128Z,3.40
2023-04-04T03:25:45.154Z,3.20
2023-04-04T03:26:45.098Z,3.50
2023-04-04T03:27:45.093Z,3.50
2023-04-04T03:28:45.110Z,2.90
2023-04-04T03:29:45.073Z,3.40
2023-04-04T03:30:45.034Z,3.50
2023-04-04T03:31:45.087Z,3.40
2023-04-04T03:32:45.048Z,3.20
2023-04-04T03:33:45.022Z,2.90
2023-04-04T03:34:45.086Z,2.80
2023-04-04T03:35:45.037Z,3.50
2023-04-04T03:36:44.972Z,3.20
2023-04-04T03:37:44.996Z,3.00
2023-04-04T03:38:44.931Z,3.70
2023-04-04T03:39:44.929Z,2.90
2023-04-04T03:40:44.976Z,3.20
2023-04-04T03:41:44.894Z,3.50
2023-04-04T03:42:44.886Z,3.00
2023-04-04T03:43:44.891Z,3.30
2023-04-04T03:44:44.873Z,3.60
2023-04-04T03:45:44.981Z,3.30
2023-04-04T03:46:44.857Z,3.30
2023-04-04T03:47:44.864Z,3.50
2023-04-04T03:48:44.781Z,3.20
2023-04-04T03:49:44.869Z,3.60
2023-04-04T03:50:44.802Z,3.70
2023-04-04T03:51:44.764Z,3.60
2023-04-04T03:52:44.802Z,3.80
2023-04-04T03:53:44.743Z,4.10
2023-04-04T03:54:44.735Z,4.10
2023-04-04T03:55:44.754Z,3.90
2023-04-04T03:56:44.698Z,3.90
2023-04-04T03:57:44.683Z,3.60
2023-04-04T03:58:44.756Z,3.80
2023-04-04T03:59:44.663Z,3.30
2023-04-04T04:00:44.633Z,3.70
2023-04-04T04:01:44.660Z,3.30
2023-04-04T04:02:44.732Z,4.50
2023-04-04T04:03:44.701Z,4.00
2023-04-04T04:04:44.618Z,3.90
2023-04-04T04:05:44.601Z,4.70
2023-04-04T04:06:44.534Z,4.70
2023-04-04T04:07:44.531Z,4.80
2023-04-04T04:08:44.603Z,4.70
2023-04-04T04:09:44.544Z,4.80
2023-04-04T04:10:44.490Z,4.20
2023-04-04T04:11:44.504Z,4.00
2023-04-04T04:12:44.471Z,3.70
2023-04-04T04:13:44.588Z,4.10
2023-04-04T04:14:44.478Z,3.60
2023-04-04T04:15:44.433Z,3.40
2023-04-04T04:16:44.401Z,3.60
2023-04-04T04:17:44.470Z,3.90
2023-04-04T04:18:44.373Z,3.60
2023-04-04T04:19:44.404Z,3.40
2023-04-04T04:20:44.386Z,3.40
2023-04-04T04:21:44.391Z,3.40
2023-04-04T04:22:44.328Z,3.60
2023-04-04T04:23:44.353Z,3.60
2023-04-04T04:24:44.312Z,3.80
2023-04-04T04:25:44.290Z,3.50
2023-04-04T04:26:44.305Z,3.50
2023-04-04T04:27:44.289Z,3.70
2023-04-04T04:28:44.265Z,3.40
2023-04-04T04:29:44.300Z,3.40
2023-04-04T04:30:44.238Z,3.20
2023-04-04T04:31:44.321Z,3.90
2023-04-04T04:32:44.279Z,3.90
2023-04-04T04:33:44.188Z,3.40
2023-04-04T04:34:44.182Z,3.50
2023-04-04T04:35:44.219Z,3.60
2023-04-04T04:36:44.197Z,3.20
2023-04-04T04:37:44.198Z,3.80
2023-04-04T04:38:44.137Z,3.50
2023-04-04T04:39:44.178Z,3.60
2023-04-04T04:40:44.108Z,3.60
2023-04-04T04:41:44.090Z,3.20
2023-04-04T04:42:44.076Z,3.60
2023-04-04T04:43:44.091Z,3.40
2023-04-04T04:44:44.037Z,3.70
2023-04-04T04:45:44.032Z,4.30
2023-04-04T04:46:44.060Z,3.50
2023-04-04T04:47:44.027Z,3.40
2023-04-04T04:48:44.025Z,3.70
2023-04-04T04:49:43.972Z,3.80
2023-04-04T04:50:43.953Z,3.40
2023-04-04T04:51:43.947Z,3.30
2023-04-04T04:52:43.948Z,3.00
2023-04-04T04:53:43.970Z,3.30
2023-04-04T04:54:43.963Z,3.20
2023-04-04T04:55:43.888Z,3.40
2023-04-04T04:56:43.864Z,3.50
2023-04-04T04:57:43.887Z,3.40
2023-04-04T04:58:43.900Z,3.30
2023-04-04T04:59:43.832Z,3.20
2023-04-04T05:00:43.895Z,3.10
2023-04-04T05:01:43.830Z,3.40
2023-04-04T05:02:43.852Z,3.10
2023-04-04T05:03:43.777Z,3.20
2023-04-04T05:04:43.778Z,2.80
2023-04-04T05:05:43.764Z,3.20
2023-04-04T05:06:43.758Z,3.20
2023-04-04T05:07:43.716Z,3.20
2023-04-04T05:08:43.694Z,3.10
2023-04-04T05:09:43.700Z,3.00
2023-04-04T05:10:43.688Z,3.30
2023-04-04T05:11:43.659Z,3.40
2023-04-04T05:12:43.675Z,3.20
2023-04-04T05:13:43.636Z,3.20
2023-04-04T05:14:43.640Z,3.20
2023-04-04T05:15:43.636Z,3.00
2023-04-04T05:16:43.636Z,2.90
2023-04-04T05:17:43.645Z,3.30
2023-04-04T05:18:43.578Z,3.00
2023-04-04T05:19:43.604Z,3.40
2023-04-04T05:20:43.571Z,3.30
2023-04-04T05:21:43.556Z,3.50
2023-04-04T05:22:43.524Z,3.00
2023-04-04T05:23:43.515Z,2.90
2023-04-04T05:24:43.543Z,3.10
2023-04-04T05:25:44.531Z,3.50
2023-04-04T05:26:43.469Z,3.60
2023-04-04T05:27:43.466Z,2.90
2023-04-04T05:28:43.433Z,3.10
2023-04-04T05:29:43.448Z,3.20
2023-04-04T05:30:43.433Z,3.20
2023-04-04T05:31:43.424Z,3.40
2023-04-04T05:32:43.585Z,3.10
2023-04-04T05:33:43.378Z,3.60
2023-04-04T05:34:43.436Z,3.00
2023-04-04T05:35:43.505Z,3.40
2023-04-04T05:36:43.376Z,3.30
2023-04-04T05:37:43.313Z,3.50
2023-04-04T05:38:43.343Z,3.40
2023-04-04T05:39:43.277Z,3.50
2023-04-04T05:40:43.301Z,3.60
2023-04-04T05:41:43.269Z,3.50
2023-04-04T05:42:43.255Z,3.30
2023-04-04T05:43:43.236Z,3.40
2023-04-04T05:44:43.296Z,3.60
2023-04-04T05:45:43.244Z,3.90
2023-04-04T05:46:43.220Z,3.30
2023-04-04T05:47:43.244Z,3.90
2023-04-04T05:49:58.864Z,3.80
2023-04-04T05:50:59.872Z,3.60
2023-04-04T05:51:59.852Z,4.60
2023-04-04T05:52:59.830Z,4.30
2023-04-04T05:53:59.884Z,4.20
2023-04-04T05:54:59.815Z,4.10
2023-04-04T05:55:59.795Z,4.30
2023-04-04T05:56:59.812Z,4.20
2023-04-04T05:57:59.747Z,3.60
2023-04-04T05:58:59.765Z,4.50
2023-04-04T05:59:59.762Z,4.30
2023-04-04T06:00:59.758Z,4.80
2023-04-04T06:01:59.694Z,4.60
2023-04-04T06:02:59.852Z,4.10
2023-04-04T06:03:59.670Z,4.10
2023-04-04T06:04:59.663Z,4.50
2023-04-04T06:06:22.932Z,4.60
2023-04-04T06:06:59.648Z,4.10
2023-04-04T06:07:59.618Z,4.50
2023-04-04T06:08:59.640Z,3.90
2023-04-04T06:09:59.636Z,4.20
2023-04-04T06:10:59.581Z,4.40
2023-04-04T06:11:59.617Z,4.20
2023-04-04T06:12:59.602Z,3.90
2023-04-04T06:13:59.550Z,4.20
2023-04-04T06:14:59.562Z,4.50
2023-04-04T06:15:59.546Z,4.50
2023-04-04T06:16:59.544Z,4.00
2023-04-04T06:17:59.537Z,4.10
2023-04-04T06:18:59.469Z,3.80
2023-04-04T06:19:59.467Z,4.00
2023-04-04T06:20:59.439Z,4.70
2023-04-04T06:21:59.450Z,4.20
2023-04-04T06:22:59.465Z,4.00
2023-04-04T06:23:59.408Z,4.50
2023-04-04T06:24:59.400Z,4.90
2023-04-04T06:25:59.421Z,4.30
2023-04-04T06:26:59.395Z,4.30
2023-04-04T06:27:59.373Z,4.00
2023-04-04T06:28:59.380Z,4.30
2023-04-04T06:29:59.331Z,3.80
2023-04-04T06:30:59.314Z,3.60
2023-04-04T06:31:59.340Z,3.40
2023-04-04T06:32:59.315Z,3.10
2023-04-04T06:33:59.286Z,3.50
2023-04-04T06:34:59.286Z,3.00
2023-04-04T06:35:59.295Z,3.00
2023-04-04T06:36:59.239Z,3.10
2023-04-04T06:37:59.268Z,2.70
2023-04-04T06:38:59.209Z,3.20
2023-04-04T06:40:04.590Z,3.30
2023-04-04T06:40:59.178Z,2.90
2023-04-04T06:41:59.220Z,3.00
2023-04-04T06:42:59.158Z,2.80
2023-04-04T06:43:59.131Z,2.60
2023-04-04T06:44:59.116Z,2.80
2023-04-04T06:45:59.107Z,3.00
2023-04-04T06:46:59.259Z,3.00
2023-04-04T06:47:59.129Z,2.60
2023-04-04T06:48:59.158Z,3.50
2023-04-04T06:49:59.052Z,2.90
2023-04-04T06:50:59.083Z,3.40
2023-04-04T06:51:59.111Z,3.50
2023-04-04T06:52:59.017Z,3.10
2023-04-04T06:53:59.054Z,2.90
2023-04-04T06:54:59.094Z,3.40
2023-04-04T06:55:58.989Z,3.20
2023-04-04T06:56:59.028Z,3.40
2023-04-04T06:57:58.984Z,2.80
2023-04-04T06:58:58.961Z,2.90
2023-04-04T06:59:58.932Z,3.30
2023-04-04T07:00:58.993Z,3.30
2023-04-04T07:01:58.999Z,3.10
2023-04-04T07:02:58.940Z,3.00
2023-04-04T07:03:58.886Z,2.70
2023-04-04T07:04:58.858Z,2.80
2023-04-04T07:05:58.909Z,2.90
2023-04-04T07:06:58.838Z,3.00
2023-04-04T07:07:58.890Z,3.80
2023-04-04T07:08:58.864Z,3.00
2023-04-04T07:09:58.813Z,2.90
2023-04-04T07:10:58.884Z,3.20
2023-04-04T07:11:58.821Z,3.20
2023-04-04T07:12:58.810Z,2.60
2023-04-04T07:13:58.799Z,3.20
2023-04-04T07:14:58.738Z,2.70
2023-04-04T07:15:58.765Z,2.70
2023-04-04T07:16:58.828Z,2.80
2023-04-04T07:17:58.759Z,3.00
2023-04-04T07:18:58.662Z,2.70
2023-04-04T07:19:58.703Z,2.60
2023-04-04T07:20:58.678Z,2.40
2023-04-04T07:21:58.680Z,2.80
2023-04-04T07:22:58.738Z,2.40
2023-04-04T07:23:58.614Z,2.80
2023-04-04T07:24:58.653Z,3.40
2023-04-04T07:25:58.580Z,2.80
2023-04-04T07:26:58.614Z,3.00
2023-04-04T07:28:09.581Z,2.60
2023-04-04T07:28:58.564Z,2.60
2023-04-04T07:29:58.528Z,2.60
2023-04-04T07:30:58.532Z,2.40
2023-04-04T07:31:58.562Z,2.60
2023-04-04T07:32:58.587Z,2.70
2023-04-04T07:33:58.468Z,3.10
2023-04-04T07:34:58.514Z,2.80
2023-04-04T07:35:58.524Z,2.80
2023-04-04T07:36:58.495Z,2.80
2023-04-04T07:37:58.452Z,2.70
2023-04-04T07:38:58.408Z,2.70
2023-04-04T07:39:58.392Z,2.80
2023-04-04T07:40:58.372Z,2.50
2023-04-04T07:41:58.389Z,2.80
2023-04-04T07:42:58.352Z,2.90
2023-04-04T07:43:58.388Z,2.70
2023-04-04T07:44:58.340Z,2.60
2023-04-04T07:45:58.343Z,2.80
2023-04-04T07:47:08.598Z,2.90
2023-04-04T07:47:58.321Z,2.50
2023-04-04T07:48:58.313Z,2.70
2023-04-04T07:49:58.285Z,3.10
2023-04-04T07:50:58.254Z,2.80
2023-04-04T07:51:58.227Z,2.90
2023-04-04T07:52:58.220Z,2.90
2023-04-04T07:53:58.242Z,3.00
2023-04-04T07:55:00.408Z,2.70
2023-04-04T07:55:58.190Z,2.60
2023-04-04T07:56:58.170Z,3.00
2023-04-04T07:57:58.158Z,2.80
2023-04-04T07:58:58.185Z,3.00
2023-04-04T07:59:58.172Z,2.80
2023-04-04T08:00:58.093Z,2.90
2023-04-04T08:01:58.124Z,2.40
2023-04-04T08:02:58.208Z,2.30
2023-04-04T08:03:58.246Z,2.60
2023-04-04T08:04:58.095Z,2.80
2023-04-04T08:05:58.068Z,2.60
2023-04-04T08:06:59.167Z,2.50
2023-04-04T08:07:58.047Z,2.50
2023-04-04T08:08:58.033Z,2.30
2023-04-04T08:09:57.988Z,2.40
2023-04-04T08:10:58.093Z,2.50
2023-04-04T08:11:58.070Z,2.40
2023-04-04T08:12:58.007Z,3.10
2023-04-04T08:13:58.001Z,3.30
2023-04-04T08:14:57.960Z,3.50
2023-04-04T08:15:58.067Z,3.50
2023-04-04T08:16:57.958Z,3.80
2023-04-04T08:17:57.978Z,3.30
2023-04-04T08:18:59.543Z,3.00
2023-04-04T08:20:00.233Z,3.50
2023-04-04T08:20:57.919Z,3.10
2023-04-04T08:21:57.862Z,2.80
2023-04-04T08:22:57.853Z,3.10
2023-04-04T08:23:57.844Z,3.00
2023-04-04T08:24:57.896Z,3.20
2023-04-04T08:25:57.794Z,3.20
2023-04-04T08:27:05.004Z,3.10
2023-04-04T08:27:58.019Z,2.70
2023-04-04T08:28:57.736Z,2.50
2023-04-04T08:29:57.813Z,2.60
2023-04-04T08:30:57.743Z,2.80
2023-04-04T08:31:57.751Z,2.50
2023-04-04T08:32:57.799Z,2.20
2023-04-04T08:33:57.768Z,2.80
2023-04-04T08:34:57.644Z,2.40
2023-04-04T08:35:57.737Z,2.40
2023-04-04T08:36:57.674Z,2.30
2023-04-04T08:37:57.685Z,2.20
2023-04-04T08:38:57.641Z,2.20
2023-04-04T08:39:57.623Z,2.50
2023-04-04T08:40:57.659Z,1.90
2023-04-04T08:41:57.652Z,2.00
2023-04-04T08:42:57.677Z,2.10
2023-04-04T08:47:41.500Z,2.30
2023-04-04T08:48:07.580Z,2.10
2023-04-04T08:57:09.572Z,1.90
2023-04-04T08:58:10.508Z,2.00
2023-04-04T09:02:01.781Z,2.10
2023-04-04T09:03:19.877Z,1.90
2023-04-04T09:04:00.507Z,1.70
2023-04-04T09:07:32.117Z,2.30
2023-04-04T09:08:30.439Z,2.50
2023-04-04T09:09:30.428Z,2.20
2023-04-04T09:10:30.465Z,2.00
2023-04-04T09:11:30.440Z,1.90
2023-04-04T09:12:30.383Z,1.80
2023-04-04T09:13:30.737Z,2.10
2023-04-04T09:17:12.060Z,2.00
2023-04-04T09:17:50.424Z,2.10
2023-04-04T09:18:50.440Z,2.00
2023-04-04T09:19:50.319Z,2.20
2023-04-04T09:20:50.332Z,1.70
2023-04-04T09:21:50.289Z,1.90
2023-04-04T09:22:50.327Z,1.70
2023-04-04T09:23:50.247Z,1.80
2023-04-04T09:24:50.268Z,2.20
2023-04-04T09:26:49.240Z,2.10
2023-04-04T09:27:50.245Z,1.50
2023-04-04T09:28:50.247Z,1.80
2023-04-04T09:29:50.208Z,1.70
2023-04-04T09:30:50.177Z,1.70
2023-04-04T09:31:50.216Z,1.70
2023-04-04T09:32:50.182Z,2.00
2023-04-04T09:33:50.465Z,1.60
2023-04-04T09:34:51.320Z,1.70
2023-04-04T09:35:50.164Z,1.60
2023-04-04T09:36:50.105Z,2.30
2023-04-04T09:37:50.138Z,2.20
2023-04-04T09:38:50.051Z,2.00
2023-04-04T09:39:50.056Z,1.90
2023-04-04T09:40:50.074Z,1.80
2023-04-04T09:41:50.083Z,2.10
2023-04-04T09:42:50.051Z,2.00
2023-04-04T09:43:50.017Z,1.80
2023-04-04T09:44:50.022Z,1.60
2023-04-04T09:45:50.182Z,2.00
2023-04-04T09:46:49.938Z,1.90
2023-04-04T09:47:50.003Z,2.10
2023-04-04T09:48:50.144Z,1.90
2023-04-04T09:49:49.914Z,1.60
2023-04-04T09:50:49.950Z,1.90
2023-04-04T09:51:49.919Z,2.00
2023-04-04T09:52:49.910Z,1.60
2023-04-04T09:53:49.895Z,1.80
2023-04-04T09:54:49.858Z,1.80
2023-04-04T09:55:49.847Z,1.70
2023-04-04T09:56:49.817Z,1.80
2023-04-04T09:57:49.831Z,1.70
2023-04-04T09:59:02.548Z,1.90
2023-04-04T09:59:49.832Z,2.00
2023-04-04T10:00:49.804Z,2.40
2023-04-04T10:01:49.825Z,2.80
2023-04-04T10:02:49.788Z,2.30
2023-04-04T10:03:49.734Z,1.80
2023-04-04T10:04:53.746Z,1.80
2023-04-04T10:05:49.713Z,1.90
2023-04-04T10:06:49.681Z,1.80
2023-04-04T10:07:49.673Z,1.90
2023-04-04T10:08:49.748Z,1.80
2023-04-04T10:09:49.682Z,1.60
2023-04-04T10:11:02.456Z,1.40
2023-04-04T10:11:49.607Z,1.60
2023-04-04T10:12:49.600Z,1.60
2023-04-04T10:13:49.582Z,1.90
2023-04-04T10:14:49.568Z,1.50
2023-04-04T10:15:49.632Z,1.90
2023-04-04T10:16:49.570Z,1.80
2023-04-04T10:17:49.748Z,1.70
2023-04-04T10:18:50.667Z,1.60
2023-04-04T10:19:49.487Z,1.80
2023-04-04T10:20:49.491Z,1.70
2023-04-04T10:21:49.500Z,1.90
2023-04-04T10:22:49.468Z,1.90
2023-04-04T10:23:49.488Z,1.70
2023-04-04T10:24:49.446Z,2.00
2023-04-04T10:25:49.447Z,1.90
2023-04-04T10:26:49.421Z,1.90
2023-04-04T10:27:51.359Z,1.60
2023-04-04T10:28:49.400Z,1.70
2023-04-04T10:29:50.488Z,1.80
2023-04-04T10:31:03.109Z,1.70
2023-04-04T10:31:49.428Z,1.70
2023-04-04T10:32:49.411Z,1.90
2023-04-04T10:33:49.350Z,1.80
2023-04-04T10:34:49.321Z,1.60
2023-04-04T10:35:49.301Z,1.70
2023-04-04T10:36:49.302Z,2.20
2023-04-04T10:37:49.314Z,1.70
2023-04-04T10:38:49.272Z,2.30
2023-04-04T10:39:49.246Z,2.00
2023-04-04T10:40:49.232Z,1.70
2023-04-04T10:41:49.201Z,1.70
2023-04-04T10:42:50.333Z,2.50
2023-04-04T10:43:49.221Z,2.10
2023-04-04T10:44:49.174Z,1.90
2023-04-04T10:45:49.154Z,2.00
2023-04-04T10:46:49.258Z,1.90
2023-04-04T10:47:49.205Z,2.10
2023-04-04T10:48:49.117Z,2.20
2023-04-04T10:49:49.117Z,1.80
2023-04-04T10:50:49.084Z,2.10
2023-04-04T10:51:56.275Z,2.10
2023-04-04T10:52:49.074Z,2.10
2023-04-04T10:53:49.031Z,2.00
2023-04-04T10:54:49.041Z,2.00
2023-04-04T10:55:49.090Z,2.00
2023-04-04T10:56:49.022Z,2.00
2023-04-04T10:57:49.009Z,1.80
2023-04-04T10:58:49.045Z,1.90
2023-04-04T10:59:48.970Z,2.10
2023-04-04T11:00:48.968Z,2.10
2023-04-04T11:01:49.016Z,1.80
2023-04-04T11:02:48.967Z,1.90
2023-04-04T11:03:48.934Z,1.90
2023-04-04T11:04:48.959Z,1.90
2023-04-04T11:05:48.905Z,2.30
2023-04-04T11:06:48.870Z,1.80
2023-04-04T11:08:00.782Z,1.80
2023-04-04T11:08:48.860Z,1.70
2023-04-04T11:09:48.840Z,2.00
2023-04-04T11:10:48.873Z,1.90
2023-04-04T11:11:48.804Z,2.30
2023-04-04T11:12:48.784Z,1.90
2023-04-04T11:13:48.784Z,2.20
2023-04-04T11:14:48.782Z,2.00
2023-04-04T11:15:48.784Z,2.10
2023-04-04T11:16:48.991Z,1.90
2023-04-04T11:17:48.760Z,2.40
2023-04-04T11:18:48.746Z,1.90
2023-04-04T11:19:48.715Z,2.20
2023-04-04T11:20:48.693Z,2.60
2023-04-04T11:21:48.666Z,2.10
2023-04-04T11:22:48.728Z,2.30
2023-04-04T11:23:48.731Z,2.40
2023-04-04T11:24:48.636Z,2.10
2023-04-04T11:25:48.733Z,1.80
2023-04-04T11:26:48.645Z,2.00
2023-04-04T11:27:48.621Z,2.10
2023-04-04T11:28:48.624Z,2.40
2023-04-04T11:29:48.580Z,2.30
2023-04-04T11:30:48.650Z,2.30
2023-04-04T11:31:48.550Z,2.10
2023-04-04T11:32:59.785Z,2.60
2023-04-04T11:33:48.565Z,2.40
2023-04-04T11:34:48.569Z,2.10
2023-04-04T11:35:48.477Z,2.30
2023-04-04T11:36:48.582Z,2.10
2023-04-04T11:37:48.465Z,1.80
2023-04-04T11:38:48.474Z,2.30
2023-04-04T11:39:48.475Z,2.20
2023-04-04T11:40:48.452Z,2.10
2023-04-04T11:41:48.448Z,1.70
2023-04-04T11:42:48.430Z,2.20
2023-04-04T11:43:48.399Z,1.80
2023-04-04T11:44:48.406Z,2.00
2023-04-04T11:45:48.401Z,1.90
2023-04-04T11:46:50.607Z,2.00
2023-04-04T11:47:48.359Z,2.30
2023-04-04T11:48:48.355Z,2.70
2023-04-04T11:49:48.410Z,2.40
2023-04-04T11:50:48.298Z,2.20
2023-04-04T11:51:48.293Z,1.90
2023-04-04T11:52:48.295Z,2.10
2023-04-04T11:53:48.270Z,1.80
2023-04-04T11:54:48.295Z,2.00
2023-04-04T11:55:48.262Z,2.10
2023-04-04T11:56:48.285Z,2.10
2023-04-04T11:57:48.222Z,2.10
2023-04-04T11:58:49.516Z,2.20
2023-04-04T11:59:48.213Z,2.70
2023-04-04T12:00:48.241Z,2.00
2023-04-04T12:01:48.150Z,2.00
2023-04-04T12:02:48.230Z,1.80
2023-04-04T12:03:48.176Z,2.20
2023-04-04T12:04:48.226Z,2.20
2023-04-04T12:05:48.212Z,2.20
2023-04-04T12:06:48.165Z,1.80
2023-04-04T12:07:48.101Z,1.80
2023-04-04T12:08:48.052Z,2.00
2023-04-04T12:09:48.037Z,1.70
2023-04-04T12:10:48.041Z,2.10
2023-04-04T12:11:48.036Z,1.80
2023-04-04T12:12:48.149Z,2.00
2023-04-04T12:13:48.059Z,2.10
2023-04-04T12:14:48.001Z,1.90
2023-04-04T12:15:48.042Z,2.00
2023-04-04T12:16:47.977Z,2.10
2023-04-04T12:17:47.949Z,2.30
2023-04-04T12:18:47.913Z,1.90
2023-04-04T12:19:47.945Z,2.50
2023-04-04T12:20:47.903Z,1.90
2023-04-04T12:21:47.896Z,2.50
2023-04-04T12:22:48.013Z,2.20
2023-04-04T12:23:47.847Z,2.00
2023-04-04T12:24:47.867Z,2.00
2023-04-04T12:25:47.946Z,2.20
2023-04-04T12:26:47.830Z,2.20
2023-04-04T12:27:47.896Z,2.10
2023-04-04T12:28:47.768Z,2.10
2023-04-04T12:29:47.770Z,2.00
2023-04-04T12:30:47.776Z,2.20
2023-04-04T12:31:49.337Z,1.90
2023-04-04T12:32:48.007Z,2.20
2023-04-04T12:33:47.864Z,1.80
2023-04-04T12:34:49.937Z,2.10
2023-04-04T12:35:47.795Z,2.00
2023-04-04T12:36:47.705Z,1.80
2023-04-04T12:37:47.646Z,2.30
2023-04-04T12:38:47.699Z,2.10
2023-04-04T12:39:47.751Z,2.30
2023-04-04T12:40:47.687Z,2.00
2023-04-04T12:41:47.711Z,2.20
2023-04-04T12:42:47.670Z,2.30
2023-04-04T12:43:47.691Z,2.10
2023-04-04T12:44:47.718Z,2.20
2023-04-04T12:45:47.682Z,2.00
2023-04-04T12:46:47.997Z,2.20
2023-04-04T12:47:47.640Z,1.90
2023-04-04T12:48:47.557Z,2.00
2023-04-04T12:49:47.578Z,2.00
2023-04-04T12:50:47.545Z,2.30
2023-04-04T12:51:47.503Z,2.00
2023-04-04T12:52:47.565Z,2.30
2023-04-04T12:53:47.520Z,2.40
2023-04-04T12:54:50.813Z,2.20
2023-04-04T12:55:47.542Z,2.40
2023-04-04T12:56:47.489Z,2.40
2023-04-04T12:57:47.438Z,2.20
2023-04-04T12:58:47.662Z,2.30
2023-04-04T12:59:47.439Z,2.20
2023-04-04T13:00:47.514Z,2.30
2023-04-04T13:01:47.424Z,2.00
2023-04-04T13:02:47.438Z,1.90
2023-04-04T13:03:47.367Z,2.30
2023-04-04T13:04:47.316Z,2.40
2023-04-04T13:05:47.329Z,2.10
2023-04-04T13:06:47.419Z,2.30
2023-04-04T13:07:47.338Z,1.90
2023-04-04T13:08:47.265Z,2.60
2023-04-04T13:09:47.273Z,2.30
2023-04-04T13:10:47.238Z,2.40
2023-04-04T13:11:47.421Z,2.10
2023-04-04T13:12:47.291Z,2.00
2023-04-04T13:14:47.291Z,2.30
2023-04-04T13:15:47.243Z,2.50
2023-04-04T13:16:47.222Z,2.00
2023-04-04T13:17:47.225Z,2.20
2023-04-04T13:18:47.202Z,2.00
2023-04-04T13:19:47.111Z,2.40
2023-04-04T13:20:47.137Z,2.20
2023-04-04T13:21:47.116Z,2.50
2023-04-04T13:22:47.113Z,2.00
2023-04-04T13:23:47.065Z,2.40
2023-04-04T13:24:47.101Z,2.70
2023-04-04T13:25:47.083Z,2.30
2023-04-04T13:26:47.048Z,2.20
2023-04-04T13:27:47.057Z,2.30
2023-04-04T13:28:47.050Z,2.30
2023-04-04T13:29:46.964Z,2.20
2023-04-04T13:30:46.999Z,2.30
2023-04-04T13:31:46.953Z,2.60
2023-04-04T13:32:46.934Z,2.40
2023-04-04T13:33:46.939Z,2.70
2023-04-04T13:34:46.975Z,2.20
2023-04-04T13:35:46.920Z,2.40
2023-04-04T13:36:46.991Z,2.40
2023-04-04T13:37:46.872Z,2.60
2023-04-04T13:38:46.843Z,2.10
2023-04-04T13:39:46.855Z,2.50
2023-04-04T13:40:46.842Z,2.50